createdAt,value
2022-12-08T00:00:53.011Z,6.85
2022-12-08T00:03:20.030Z,10.05
2022-12-08T00:06:08.784Z,9.30
2022-12-08T00:08:54.014Z,7.95
2022-12-08T00:11:20.890Z,7.93
2022-12-08T00:13:47.761Z,9.90
2022-12-08T00:16:14.665Z,7.00
2022-12-08T00:18:41.632Z,8.25
2022-12-08T00:21:08.454Z,6.47
2022-12-08T00:23:35.262Z,5.38
2022-12-08T00:26:05.554Z,6.75
2022-12-08T00:28:33.050Z,6.18
2022-12-08T00:30:59.873Z,7.50
2022-12-08T00:33:28.272Z,5.05
2022-12-08T00:35:55.158Z,8.98
2022-12-08T00:38:21.973Z,4.97
2022-12-08T00:40:48.793Z,6.80
2022-12-08T00:43:15.679Z,9.95
2022-12-08T00:45:43.228Z,6.38
2022-12-08T00:48:11.048Z,8.95
2022-12-08T00:50:37.886Z,10.65
2022-12-08T00:53:07.655Z,10.45
2022-12-08T00:55:35.302Z,9.02
2022-12-08T00:58:02.204Z,10.30
2022-12-08T01:00:29.022Z,10.65
2022-12-08T01:02:55.950Z,10.00
2022-12-08T01:05:22.865Z,9.07
2022-12-08T01:07:49.766Z,11.35
2022-12-08T01:10:17.027Z,10.30
2022-12-08T01:12:43.836Z,8.50
2022-12-08T01:15:10.758Z,7.90
2022-12-08T01:17:38.118Z,9.52
2022-12-08T01:20:06.139Z,9.13
2022-12-08T01:22:34.942Z,7.88
2022-12-08T01:25:02.453Z,8.48
2022-12-08T01:27:29.292Z,6.30
2022-12-08T01:29:56.283Z,9.48
2022-12-08T01:32:23.116Z,7.10
2022-12-08T01:34:49.922Z,5.68
2022-12-08T01:37:17.097Z,12.32
2022-12-08T01:39:43.960Z,7.82
2022-12-08T01:42:21.203Z,6.85
2022-12-08T01:45:02.898Z,4.13
2022-12-08T01:47:41.746Z,8.35
2022-12-08T01:50:10.361Z,5.28
2022-12-08T01:52:42.397Z,6.53
2022-12-08T01:55:20.823Z,5.85
2022-12-08T01:57:49.267Z,6.18
2022-12-08T02:00:17.837Z,7.05
2022-12-08T02:03:03.959Z,9.07
2022-12-08T02:05:33.169Z,7.28
2022-12-08T02:08:01.537Z,7.53
2022-12-08T02:10:29.911Z,5.15
2022-12-08T02:12:57.144Z,4.43
2022-12-08T02:15:48.616Z,5.28
2022-12-08T02:18:39.779Z,6.30
2022-12-08T02:21:24.865Z,9.70
2022-12-08T02:24:11.567Z,10.75
2022-12-08T02:26:56.209Z,8.75
2022-12-08T02:29:38.130Z,13.40
2022-12-08T02:32:38.286Z,8.70
2022-12-08T02:35:14.806Z,6.43
2022-12-08T02:37:54.305Z,8.10
2022-12-08T02:40:36.457Z,8.93
2022-12-08T02:43:07.262Z,7.93
2022-12-08T02:45:35.234Z,7.78
2022-12-08T02:48:02.041Z,12.05
2022-12-08T02:50:28.851Z,12.45
2022-12-08T02:52:55.716Z,9.35
2022-12-08T02:55:48.469Z,8.55
2022-12-08T02:58:30.252Z,9.83
2022-12-08T03:01:04.820Z,9.40
2022-12-08T03:03:54.969Z,9.77
2022-12-08T03:06:32.585Z,8.73
2022-12-08T03:09:08.693Z,14.65
2022-12-08T03:11:48.577Z,7.70
2022-12-08T03:14:17.277Z,11.10
2022-12-08T03:16:46.434Z,12.13
2022-12-08T03:19:21.639Z,13.63
2022-12-08T03:21:50.641Z,10.85
2022-12-08T03:24:17.787Z,12.68
2022-12-08T03:26:57.706Z,11.60
2022-12-08T03:29:24.547Z,13.57
2022-12-08T03:31:57.861Z,13.32
2022-12-08T03:34:26.296Z,12.43
2022-12-08T03:36:53.103Z,8.68
2022-12-08T03:39:19.925Z,7.20
2022-12-08T03:41:46.809Z,6.80
2022-12-08T03:44:13.611Z,6.38
2022-12-08T03:46:40.376Z,6.72
2022-12-08T03:49:07.149Z,6.60
2022-12-08T03:51:33.942Z,6.10
2022-12-08T03:54:00.838Z,6.38
2022-12-08T03:56:29.903Z,9.32
2022-12-08T03:58:56.812Z,8.68
2022-12-08T04:01:23.798Z,9.60
2022-12-08T04:03:50.774Z,7.65
2022-12-08T04:06:17.742Z,8.05
2022-12-08T04:08:44.602Z,8.00
2022-12-08T04:11:11.474Z,11.73
2022-12-08T04:13:38.964Z,9.60
2022-12-08T04:16:06.313Z,7.28
2022-12-08T04:18:33.801Z,13.00
2022-12-08T04:21:00.672Z,11.30
2022-12-08T04:23:27.555Z,9.00
2022-12-08T04:25:54.409Z,10.13
2022-12-08T04:28:21.819Z,10.25
2022-12-08T04:30:49.282Z,12.43
2022-12-08T04:33:16.323Z,7.07
2022-12-08T04:35:43.152Z,7.50
2022-12-08T04:38:10.007Z,7.93
2022-12-08T04:40:36.845Z,7.88
2022-12-08T04:43:03.653Z,7.43
2022-12-08T04:45:30.694Z,5.97
2022-12-08T04:48:01.351Z,7.82
2022-12-08T04:50:28.268Z,10.35
2022-12-08T04:52:55.093Z,8.30
2022-12-08T04:55:21.863Z,9.73
2022-12-08T04:57:48.647Z,11.05
2022-12-08T05:00:15.847Z,8.35
2022-12-08T05:02:42.768Z,9.52
2022-12-08T05:05:10.360Z,11.60
2022-12-08T05:07:37.218Z,10.63
2022-12-08T05:10:04.909Z,9.82
2022-12-08T05:12:31.902Z,17.50
2022-12-08T05:14:58.680Z,20.20
2022-12-08T05:17:25.556Z,16.60
2022-12-08T05:19:52.361Z,16.88
2022-12-08T05:22:19.136Z,13.65
2022-12-08T05:24:47.833Z,8.95
2022-12-08T05:27:15.041Z,6.65
2022-12-08T05:29:42.039Z,11.82
2022-12-08T05:32:08.950Z,15.85
2022-12-08T05:34:35.824Z,11.95
2022-12-08T05:37:02.625Z,12.57
2022-12-08T05:39:29.389Z,11.18
2022-12-08T05:41:56.206Z,9.80
2022-12-08T05:44:22.976Z,12.77
2022-12-08T05:46:50.230Z,9.45
2022-12-08T05:49:17.027Z,8.90
2022-12-08T05:51:43.973Z,10.40
2022-12-08T05:54:10.749Z,8.38
2022-12-08T05:56:37.532Z,9.00
2022-12-08T05:59:07.389Z,6.90
2022-12-08T06:01:34.447Z,10.90
2022-12-08T06:04:02.300Z,11.15
2022-12-08T06:06:29.180Z,10.02
2022-12-08T06:08:55.996Z,10.85
2022-12-08T06:11:27.439Z,12.40
2022-12-08T06:13:54.587Z,10.88
2022-12-08T06:16:21.504Z,11.40
2022-12-08T06:18:48.494Z,17.95
2022-12-08T06:21:15.560Z,10.05
2022-12-08T06:23:42.547Z,12.82
2022-12-08T06:26:11.722Z,9.95
2022-12-08T06:28:38.768Z,10.65
2022-12-08T06:31:11.057Z,13.20
2022-12-08T06:33:37.999Z,12.27
2022-12-08T06:36:05.779Z,14.27
2022-12-08T06:38:32.746Z,12.90
2022-12-08T06:40:59.659Z,9.98
2022-12-08T06:43:26.534Z,9.18
2022-12-08T06:45:53.519Z,15.90
2022-12-08T06:48:20.376Z,13.68
2022-12-08T06:50:47.142Z,18.27
2022-12-08T06:53:15.080Z,14.20
2022-12-08T06:56:01.070Z,10.75
2022-12-08T06:58:27.935Z,10.32
2022-12-08T07:00:55.031Z,13.10
2022-12-08T07:03:21.915Z,11.00
2022-12-08T07:05:48.731Z,8.00
2022-12-08T07:08:15.693Z,13.27
2022-12-08T07:10:42.577Z,27.63
2022-12-08T07:13:09.412Z,14.77
2022-12-08T07:15:36.245Z,18.63
2022-12-08T07:18:03.083Z,14.88
2022-12-08T07:20:29.881Z,20.88
2022-12-08T07:22:56.784Z,13.95
2022-12-08T07:25:23.658Z,16.58
2022-12-08T07:27:51.745Z,14.85
2022-12-08T07:30:18.836Z,14.05
2022-12-08T07:32:45.671Z,15.93
2022-12-08T07:35:12.577Z,75.13
2022-12-08T07:37:39.553Z,30.30
2022-12-08T07:40:07.675Z,18.80
2022-12-08T07:42:34.693Z,19.42
2022-12-08T07:45:01.467Z,20.85
2022-12-08T07:47:28.310Z,28.75
2022-12-08T07:49:55.052Z,20.13
2022-12-08T07:52:21.910Z,27.42
2022-12-08T07:54:48.748Z,21.75
2022-12-08T07:57:15.537Z,18.48
2022-12-08T07:59:42.358Z,28.83
2022-12-08T08:02:25.990Z,34.58
2022-12-08T08:04:53.431Z,26.17
2022-12-08T08:07:20.385Z,24.48
2022-12-08T08:09:47.221Z,20.00
2022-12-08T08:12:30.623Z,28.77
2022-12-08T08:14:58.033Z,25.35
2022-12-08T08:17:24.971Z,18.27
2022-12-08T08:19:51.800Z,15.82
2022-12-08T08:22:18.604Z,21.60
2022-12-08T08:24:45.469Z,17.23
2022-12-08T08:27:12.479Z,12.85
2022-12-08T08:29:39.321Z,16.45
2022-12-08T08:32:06.145Z,16.90
2022-12-08T08:34:33.065Z,14.55
2022-12-08T08:36:59.921Z,11.70
2022-12-08T08:39:26.846Z,13.75
2022-12-08T08:41:53.668Z,9.18
2022-12-08T08:44:20.441Z,13.85
2022-12-08T08:46:47.344Z,12.18
2022-12-08T08:49:14.258Z,9.43
2022-12-08T08:51:41.154Z,10.00
2022-12-08T08:54:07.985Z,13.00
2022-12-08T08:56:34.749Z,9.88
2022-12-08T08:59:02.994Z,10.48
2022-12-08T09:01:29.985Z,8.57
2022-12-08T09:03:57.033Z,9.00
2022-12-08T09:06:24.195Z,12.43
2022-12-08T09:08:51.053Z,9.07
2022-12-08T09:11:20.646Z,9.65
2022-12-08T09:13:49.537Z,11.00
2022-12-08T09:16:16.866Z,8.63
2022-12-08T09:18:43.737Z,9.10
2022-12-08T09:21:16.764Z,10.40
2022-12-08T09:23:44.139Z,9.80
2022-12-08T09:26:10.998Z,10.85
2022-12-08T09:28:38.061Z,9.68
2022-12-08T09:31:05.038Z,8.80
2022-12-08T09:33:33.148Z,13.15
2022-12-08T09:36:03.870Z,11.35
2022-12-08T09:38:30.902Z,10.43
2022-12-08T09:40:57.682Z,10.18
2022-12-08T09:43:45.781Z,9.93
2022-12-08T09:46:14.827Z,12.50
2022-12-08T09:48:55.518Z,9.88
2022-12-08T09:51:26.556Z,8.30
2022-12-08T09:54:16.959Z,9.45
2022-12-08T09:56:43.967Z,8.75
2022-12-08T09:59:23.921Z,9.32
2022-12-08T10:01:51.068Z,7.45
2022-12-08T10:04:24.124Z,10.95
2022-12-08T10:07:12.317Z,10.48
2022-12-08T10:09:50.209Z,11.32
2022-12-08T10:12:21.963Z,22.00
2022-12-08T10:15:03.955Z,16.83
2022-12-08T10:17:38.104Z,12.80
2022-12-08T10:20:27.107Z,16.17
2022-12-08T10:23:05.714Z,18.98
2022-12-08T10:25:43.301Z,17.95
2022-12-08T10:28:10.516Z,14.55
2022-12-08T10:30:37.446Z,16.23
2022-12-08T10:33:04.318Z,20.35
2022-12-08T10:35:45.923Z,18.20
2022-12-08T10:38:29.970Z,47.03
2022-12-08T10:41:07.167Z,14.10
2022-12-08T10:43:33.945Z,13.95
2022-12-08T10:46:11.574Z,17.55
2022-12-08T10:48:41.753Z,18.27
2022-12-08T10:51:09.845Z,19.42
2022-12-08T10:53:45.181Z,24.17
2022-12-08T10:56:15.411Z,23.17
2022-12-08T10:58:45.103Z,21.95
2022-12-08T11:01:21.917Z,28.95
2022-12-08T11:03:55.738Z,22.65
2022-12-08T11:06:28.822Z,29.65
2022-12-08T11:08:57.904Z,19.77
2022-12-08T11:11:44.977Z,20.45
2022-12-08T11:14:19.017Z,22.52
2022-12-08T11:16:46.059Z,25.55
2022-12-08T11:19:17.800Z,28.73
2022-12-08T11:21:46.011Z,26.75
2022-12-08T11:24:37.381Z,26.60
2022-12-08T11:27:05.171Z,54.67
2022-12-08T11:29:33.224Z,25.90
2022-12-08T11:32:02.793Z,27.02
2022-12-08T11:34:41.601Z,20.85
2022-12-08T11:37:14.069Z,29.10
2022-12-08T11:39:43.813Z,25.57
2022-12-08T11:42:11.596Z,19.35
2022-12-08T11:44:45.972Z,17.13
2022-12-08T11:47:18.341Z,21.58
2022-12-08T11:52:26.629Z,17.58
2022-12-08T11:55:16.819Z,18.77
2022-12-08T11:57:43.656Z,17.67
2022-12-08T12:00:17.973Z,20.88
2022-12-08T12:02:48.411Z,19.33
2022-12-08T12:06:09.177Z,17.17
2022-12-08T12:08:54.921Z,19.00
2022-12-08T12:11:56.183Z,18.63
2022-12-08T12:14:41.648Z,23.33
2022-12-08T12:17:31.714Z,23.73
2022-12-08T12:19:59.538Z,22.27
2022-12-08T12:22:26.296Z,28.30
2022-12-08T12:24:53.094Z,31.55
2022-12-08T12:27:32.952Z,25.08
2022-12-08T12:30:04.745Z,27.95
2022-12-08T12:32:46.139Z,29.52
2022-12-08T12:35:24.051Z,34.30
2022-12-08T12:37:56.746Z,27.65
2022-12-08T12:40:24.745Z,27.38
2022-12-08T12:42:57.544Z,27.23
2022-12-08T12:45:25.978Z,29.00
2022-12-08T12:47:56.928Z,34.55
2022-12-08T12:50:43.455Z,33.47
2022-12-08T12:53:16.473Z,27.75
2022-12-08T12:55:46.512Z,29.23
2022-12-08T12:58:20.495Z,31.25
2022-12-08T13:00:47.257Z,26.40
2022-12-08T13:03:15.189Z,23.95
2022-12-08T13:05:49.337Z,27.75
2022-12-08T13:08:23.858Z,28.23
2022-12-08T13:11:05.655Z,23.58
2022-12-08T13:13:32.488Z,25.08
2022-12-08T13:16:18.597Z,27.77
2022-12-08T13:18:50.329Z,24.38
2022-12-08T13:21:19.867Z,27.63
2022-12-08T13:23:50.429Z,30.33
2022-12-08T13:26:24.421Z,27.35
2022-12-08T13:29:06.253Z,24.00
2022-12-08T13:31:51.223Z,29.80
2022-12-08T13:34:19.892Z,31.00
2022-12-08T13:37:15.802Z,32.28
2022-12-08T13:39:44.081Z,27.38
2022-12-08T13:42:31.063Z,24.23
2022-12-08T13:45:27.964Z,26.38
2022-12-08T13:48:26.713Z,19.13
2022-12-08T13:57:11.607Z,24.17
2022-12-08T13:59:43.593Z,21.48
2022-12-08T14:02:18.855Z,16.30
2022-12-08T14:05:16.927Z,18.33
2022-12-08T14:07:34.006Z,24.20
2022-12-08T14:10:03.488Z,23.60
2022-12-08T14:12:30.350Z,17.45
2022-12-08T14:15:15.499Z,22.85
2022-12-08T14:17:54.686Z,21.63
2022-12-08T14:20:26.725Z,19.45
2022-12-08T14:22:53.685Z,20.13
2022-12-08T14:25:20.794Z,17.52
2022-12-08T14:27:47.833Z,16.05
2022-12-08T14:30:14.852Z,15.45
2022-12-08T14:32:48.401Z,15.07
2022-12-08T14:35:25.557Z,14.82
2022-12-08T14:37:58.585Z,13.77
2022-12-08T14:40:35.310Z,16.17
2022-12-08T14:43:08.728Z,12.80
2022-12-08T14:45:44.654Z,15.32
2022-12-08T14:48:23.321Z,13.75
2022-12-08T14:50:59.238Z,16.50
2022-12-08T14:53:26.137Z,14.18
2022-12-08T14:55:52.944Z,17.63
2022-12-08T14:58:28.884Z,15.82
2022-12-08T15:00:59.133Z,13.98
2022-12-08T15:03:29.467Z,16.08
2022-12-08T15:06:04.568Z,12.55
2022-12-08T15:08:31.440Z,12.65
2022-12-08T15:11:23.735Z,16.13
2022-12-08T15:13:51.803Z,17.08
2022-12-08T15:16:32.054Z,12.30
2022-12-08T15:19:16.961Z,12.15
2022-12-08T15:21:44.087Z,17.88
2022-12-08T15:24:12.395Z,13.00
2022-12-08T15:26:42.075Z,18.98
2022-12-08T15:29:20.851Z,12.77
2022-12-08T15:31:47.818Z,16.38
2022-12-08T15:34:14.680Z,21.58
2022-12-08T15:36:45.765Z,19.95
2022-12-08T15:39:32.053Z,15.20
2022-12-08T15:41:59.271Z,13.90
2022-12-08T15:44:26.154Z,29.75
2022-12-08T15:46:53.016Z,15.65
2022-12-08T15:49:21.679Z,14.85
2022-12-08T15:51:48.620Z,17.60
2022-12-08T15:54:15.436Z,17.95
2022-12-08T15:57:10.845Z,16.33
2022-12-08T15:59:33.919Z,18.55
2022-12-08T16:02:00.799Z,14.27
2022-12-08T16:05:17.917Z,15.82
2022-12-08T16:07:28.067Z,14.07
2022-12-08T16:09:55.495Z,18.63
2022-12-08T16:15:51.672Z,17.40
2022-12-08T16:18:23.916Z,21.70
2022-12-08T16:21:12.491Z,20.85
2022-12-08T16:23:45.664Z,21.00
2022-12-08T16:27:01.042Z,24.75
2022-12-08T16:29:07.070Z,17.38
2022-12-08T16:31:34.095Z,20.15
2022-12-08T16:34:01.035Z,22.23
2022-12-08T16:36:27.861Z,19.92
2022-12-08T16:38:54.669Z,20.90
2022-12-08T16:41:40.240Z,18.08
2022-12-08T16:44:07.095Z,18.75
2022-12-08T16:46:34.820Z,25.33
2022-12-08T16:49:01.673Z,20.52
2022-12-08T16:51:28.629Z,26.73
2022-12-08T16:53:56.978Z,18.98
2022-12-08T16:56:29.007Z,18.00
2022-12-08T16:58:58.951Z,21.67
2022-12-08T17:01:25.939Z,16.58
2022-12-08T17:04:22.392Z,16.55
2022-12-08T17:06:39.525Z,15.75
2022-12-08T17:09:06.367Z,17.02
2022-12-08T17:11:36.231Z,21.13
2022-12-08T17:14:06.034Z,21.67
2022-12-08T17:16:32.882Z,22.45
2022-12-08T17:18:59.693Z,16.58
2022-12-08T17:21:26.501Z,20.25
2022-12-08T17:23:53.300Z,18.20
2022-12-08T17:26:20.093Z,19.88
2022-12-08T17:29:02.249Z,15.82
2022-12-08T17:31:31.048Z,17.42
2022-12-08T17:34:01.330Z,17.38
2022-12-08T17:36:28.180Z,17.77
2022-12-08T17:38:55.558Z,19.00
2022-12-08T17:41:22.418Z,18.08
2022-12-08T17:43:49.628Z,15.93
2022-12-08T17:46:17.985Z,16.38
2022-12-08T17:48:44.821Z,17.27
2022-12-08T17:51:11.650Z,17.02
2022-12-08T17:53:40.641Z,19.35
2022-12-08T17:56:13.238Z,13.82
2022-12-08T17:58:40.047Z,18.02
2022-12-08T18:01:10.723Z,24.60
2022-12-08T18:03:37.800Z,29.52
2022-12-08T18:06:09.124Z,31.92
2022-12-08T18:08:36.230Z,36.85
2022-12-08T18:11:03.674Z,33.45
2022-12-08T18:13:30.587Z,51.83
2022-12-08T18:15:57.357Z,44.42
2022-12-08T18:18:24.180Z,36.20
2022-12-08T18:20:51.005Z,30.33
2022-12-08T18:23:18.038Z,34.25
2022-12-08T18:25:44.933Z,33.80
2022-12-08T18:28:11.735Z,31.15
2022-12-08T18:30:39.621Z,31.70
2022-12-08T18:33:06.917Z,15.50
2022-12-08T18:35:33.680Z,14.35
2022-12-08T18:38:00.539Z,23.63
2022-12-08T18:40:28.075Z,29.80
2022-12-08T18:42:55.090Z,30.33
2022-12-08T18:45:22.855Z,38.00
2022-12-08T18:47:50.461Z,42.97
2022-12-08T18:50:17.564Z,44.83
2022-12-08T18:52:45.139Z,43.47
2022-12-08T18:55:11.961Z,40.25
2022-12-08T18:57:39.505Z,44.58
2022-12-08T19:00:07.758Z,48.97
2022-12-08T19:02:36.047Z,35.13
2022-12-08T19:05:03.074Z,37.45
2022-12-08T19:07:29.973Z,29.95
2022-12-08T19:09:56.966Z,18.17
2022-12-08T19:12:24.211Z,20.85
2022-12-08T19:14:51.217Z,41.97
2022-12-08T19:17:18.018Z,39.42
2022-12-08T19:19:44.847Z,31.42
2022-12-08T19:22:13.440Z,37.15
2022-12-08T19:24:40.264Z,35.30
2022-12-08T19:27:07.172Z,42.08
2022-12-08T19:29:33.991Z,34.30
2022-12-08T19:32:00.922Z,42.53
2022-12-08T19:34:27.772Z,29.75
2022-12-08T19:36:54.621Z,28.17
2022-12-08T19:39:41.058Z,22.60
2022-12-08T19:42:34.136Z,16.95
2022-12-08T19:45:07.103Z,16.00
2022-12-08T19:47:34.152Z,18.33
2022-12-08T19:50:19.672Z,13.63
2022-12-08T19:52:46.493Z,16.02
2022-12-08T19:55:13.574Z,19.27
2022-12-08T19:57:40.448Z,17.00
2022-12-08T20:00:08.458Z,16.23
2022-12-08T20:02:36.745Z,22.17
2022-12-08T20:05:04.935Z,66.03
2022-12-08T20:07:31.792Z,104.20
2022-12-08T20:09:58.590Z,84.38
2022-12-08T20:12:25.407Z,81.53
2022-12-08T20:14:52.746Z,88.00
2022-12-08T20:17:19.595Z,93.00
2022-12-08T20:19:46.532Z,77.70
2022-12-08T20:22:13.310Z,72.85
2022-12-08T20:24:40.135Z,70.32
2022-12-08T20:27:07.031Z,68.45
2022-12-08T20:29:33.949Z,62.88
2022-12-08T20:32:00.817Z,62.70
2022-12-08T20:34:27.788Z,61.22
2022-12-08T20:36:54.675Z,62.13
2022-12-08T20:39:21.537Z,60.30
2022-12-08T20:41:48.387Z,65.65
2022-12-08T20:44:15.306Z,68.10
2022-12-08T20:46:47.768Z,57.33
2022-12-08T20:49:16.132Z,60.97
2022-12-08T20:51:44.489Z,66.70
2022-12-08T20:54:11.603Z,58.38
2022-12-08T20:56:42.053Z,53.63
2022-12-08T20:59:18.162Z,56.55
2022-12-08T21:01:45.246Z,57.53
2022-12-08T21:04:12.904Z,71.38
2022-12-08T21:06:39.960Z,66.88
2022-12-08T21:09:07.293Z,68.25
2022-12-08T21:11:34.447Z,69.00
2022-12-08T21:14:01.507Z,60.70
2022-12-08T21:16:28.424Z,56.80
2022-12-08T21:18:55.332Z,37.10
2022-12-08T21:21:22.352Z,24.75
2022-12-08T21:23:49.257Z,20.98
2022-12-08T21:26:21.074Z,52.00
2022-12-08T21:28:48.000Z,45.28
2022-12-08T21:31:16.952Z,48.20
2022-12-08T21:33:44.089Z,65.13
2022-12-08T21:36:12.759Z,53.13
2022-12-08T21:38:40.126Z,53.67
2022-12-08T21:41:11.949Z,46.20
2022-12-08T21:43:39.121Z,51.80
2022-12-08T21:46:06.240Z,53.25
2022-12-08T21:48:33.464Z,50.72
2022-12-08T21:51:04.735Z,30.25
2022-12-08T21:53:31.709Z,30.48
2022-12-08T21:55:58.515Z,35.22
2022-12-08T21:58:26.420Z,35.40
2022-12-08T22:00:53.519Z,30.83
2022-12-08T22:03:20.743Z,27.20
2022-12-08T22:05:47.779Z,28.48
2022-12-08T22:08:14.805Z,28.30
2022-12-08T22:10:46.333Z,64.20
2022-12-08T22:13:13.227Z,65.88
2022-12-08T22:15:40.236Z,63.70
2022-12-08T22:18:08.591Z,61.25
2022-12-08T22:20:39.532Z,53.95
2022-12-08T22:23:09.274Z,54.70
2022-12-08T22:25:36.213Z,61.67
2022-12-08T22:28:04.246Z,53.67
2022-12-08T22:30:37.244Z,54.10
2022-12-08T22:33:05.881Z,55.17
2022-12-08T22:35:32.772Z,58.88
2022-12-08T22:37:59.683Z,54.30
2022-12-08T22:40:26.647Z,49.83
2022-12-08T22:42:53.779Z,55.03
2022-12-08T22:45:20.744Z,58.25
2022-12-08T22:47:47.792Z,57.13
2022-12-08T22:50:14.941Z,52.60
2022-12-08T22:52:42.098Z,53.67
2022-12-08T22:55:09.411Z,55.30
2022-12-08T22:57:36.270Z,64.15
2022-12-08T23:00:06.029Z,47.92
2022-12-08T23:02:33.117Z,48.80
2022-12-08T23:05:00.485Z,50.30
2022-12-08T23:07:27.643Z,46.78
2022-12-08T23:09:54.589Z,41.30
2022-12-08T23:12:21.464Z,48.78
2022-12-08T23:14:48.352Z,45.92
2022-12-08T23:17:15.246Z,51.10
2022-12-08T23:19:42.300Z,53.08
2022-12-08T23:22:09.096Z,46.88
2022-12-08T23:24:35.865Z,42.40
2022-12-08T23:27:02.673Z,43.42
2022-12-08T23:29:29.431Z,39.80
2022-12-08T23:31:56.632Z,41.72
2022-12-08T23:34:23.548Z,41.03
2022-12-08T23:36:50.331Z,40.78
2022-12-08T23:39:17.222Z,41.45
2022-12-08T23:41:44.073Z,42.22
2022-12-08T23:44:12.101Z,38.65
2022-12-08T23:46:39.281Z,35.75
2022-12-08T23:49:06.265Z,45.17
2022-12-08T23:51:33.023Z,37.85
2022-12-08T23:53:59.843Z,43.40
2022-12-08T23:56:30.231Z,37.00
2022-12-08T23:58:57.580Z,35.25
